createdAt,value
2018-02-08T00:00:28.392Z,26.49
2018-02-08T00:01:28.113Z,26.4
2018-02-08T00:02:28.095Z,26.4
2018-02-08T00:03:28.078Z,26.43
2018-02-08T00:04:28.057Z,26.47
2018-02-08T00:05:28.039Z,26.57
2018-02-08T00:06:28.269Z,26.57
2018-02-08T00:07:28.250Z,26.54
2018-02-08T00:08:27.981Z,26.55
2018-02-08T00:09:28.212Z,26.44
2018-02-08T00:10:28.195Z,26.55
2018-02-08T00:11:27.926Z,26.54
2018-02-08T00:12:28.154Z,26.52
2018-02-08T00:13:28.163Z,26.52
2018-02-08T00:14:28.120Z,26.54
2018-02-08T00:15:27.847Z,26.52
2018-02-08T00:16:28.085Z,26.47
2018-02-08T00:17:28.068Z,26.54
2018-02-08T00:18:28.041Z,26.42
2018-02-08T00:19:27.773Z,26.43
2018-02-08T00:20:27.501Z,26.5
2018-02-08T00:21:27.733Z,26.54
2018-02-08T00:22:27.464Z,26.42
2018-02-08T00:23:27.444Z,26.46
2018-02-08T00:24:27.925Z,26.47
2018-02-08T00:25:27.657Z,26.46
2018-02-08T00:26:27.888Z,26.5
2018-02-08T00:27:27.618Z,26.52
2018-02-08T00:28:27.599Z,26.42
2018-02-08T00:29:27.582Z,26.61
2018-02-08T00:30:27.562Z,26.54
2018-02-08T00:31:27.541Z,26.44
2018-02-08T00:32:27.773Z,26.46
2018-02-08T00:33:27.256Z,26.49
2018-02-08T00:34:27.743Z,26.49
2018-02-08T00:35:27.466Z,26.57
2018-02-08T00:36:27.706Z,26.46
2018-02-08T00:37:27.177Z,26.49
2018-02-08T00:38:27.659Z,26.46
2018-02-08T00:39:27.639Z,26.49
2018-02-08T00:40:27.624Z,26.52
2018-02-08T00:41:27.101Z,26.44
2018-02-08T00:42:27.586Z,26.47
2018-02-08T00:43:27.566Z,26.46
2018-02-08T00:44:27.546Z,26.49
2018-02-08T00:45:27.274Z,26.54
2018-02-08T00:46:27.517Z,26.47
2018-02-08T00:47:27.240Z,26.52
2018-02-08T00:48:27.222Z,26.46
2018-02-08T00:49:27.198Z,26.43
2018-02-08T00:50:27.430Z,26.49
2018-02-08T00:51:26.912Z,26.49
2018-02-08T00:52:27.395Z,26.44
2018-02-08T00:53:27.123Z,26.43
2018-02-08T00:54:26.853Z,26.42
2018-02-08T00:55:27.333Z,26.43
2018-02-08T00:56:27.066Z,26.43
2018-02-08T00:57:27.045Z,26.46
2018-02-08T00:58:27.286Z,26.42
2018-02-08T00:59:27.263Z,26.49
2018-02-08T01:00:27.240Z,26.47
2018-02-08T01:01:26.974Z,26.52
2018-02-08T01:02:26.954Z,26.46
2018-02-08T01:03:27.181Z,26.52
2018-02-08T01:04:26.661Z,26.43
2018-02-08T01:05:27.158Z,26.5
2018-02-08T01:06:26.873Z,26.47
2018-02-08T01:07:27.105Z,26.44
2018-02-08T01:08:26.836Z,26.46
2018-02-08T01:09:26.818Z,26.5
2018-02-08T01:10:26.798Z,26.47
2018-02-08T01:11:27.029Z,26.46
2018-02-08T01:12:26.759Z,26.47
2018-02-08T01:13:26.742Z,26.44
2018-02-08T01:14:26.975Z,26.43
2018-02-08T01:15:26.703Z,26.52
2018-02-08T01:16:26.938Z,26.47
2018-02-08T01:17:26.413Z,26.49
2018-02-08T01:18:26.647Z,26.42
2018-02-08T01:19:26.628Z,26.43
2018-02-08T01:20:26.608Z,26.43
2018-02-08T01:21:26.837Z,26.46
2018-02-08T01:22:26.823Z,26.49
2018-02-08T01:23:26.804Z,26.39
2018-02-08T01:24:26.536Z,26.43
2018-02-08T01:25:26.516Z,26.49
2018-02-08T01:26:26.742Z,26.49
2018-02-08T01:27:26.475Z,26.42
2018-02-08T01:28:26.705Z,26.49
2018-02-08T01:29:26.436Z,26.43
2018-02-08T01:30:26.665Z,26.54
2018-02-08T01:31:26.650Z,26.43
2018-02-08T01:32:26.383Z,26.47
2018-02-08T01:33:26.618Z,26.54
2018-02-08T01:34:26.591Z,26.46
2018-02-08T01:35:26.574Z,26.44
2018-02-08T01:36:26.553Z,26.42
2018-02-08T01:37:26.533Z,26.43
2018-02-08T01:38:26.514Z,26.43
2018-02-08T01:39:26.244Z,26.42
2018-02-08T01:40:26.533Z,26.43
2018-02-08T01:41:26.457Z,26.43
2018-02-08T01:42:26.187Z,26.43
2018-02-08T01:43:26.417Z,26.35
2018-02-08T01:44:26.401Z,26.44
2018-02-08T01:45:26.380Z,26.42
2018-02-08T01:46:26.361Z,26.43
2018-02-08T01:47:26.340Z,26.46
2018-02-08T01:48:26.325Z,26.47
2018-02-08T01:49:26.303Z,26.5
2018-02-08T01:50:26.034Z,26.49
2018-02-08T01:51:26.015Z,26.42
2018-02-08T01:52:26.250Z,26.46
2018-02-08T01:53:26.228Z,26.49
2018-02-08T01:54:26.267Z,26.49
2018-02-08T01:55:26.192Z,26.5
2018-02-08T01:56:26.019Z,26.42
2018-02-08T01:57:26.151Z,26.46
2018-02-08T01:58:26.131Z,26.39
2018-02-08T01:59:26.120Z,26.5
2018-02-08T02:00:25.842Z,26.46
2018-02-08T02:01:26.074Z,26.43
2018-02-08T02:02:26.054Z,26.49
2018-02-08T02:03:26.035Z,26.39
2018-02-08T02:04:26.019Z,26.42
2018-02-08T02:05:25.997Z,26.37
2018-02-08T02:06:25.979Z,26.43
2018-02-08T02:07:25.710Z,26.32
2018-02-08T02:08:25.689Z,26.4
2018-02-08T02:09:25.921Z,26.4
2018-02-08T02:10:25.901Z,26.39
2018-02-08T02:11:25.884Z,26.42
2018-02-08T02:12:25.863Z,26.39
2018-02-08T02:13:25.851Z,26.42
2018-02-08T02:14:25.830Z,26.49
2018-02-08T02:15:25.806Z,26.43
2018-02-08T02:16:25.789Z,26.43
2018-02-08T02:17:25.769Z,26.35
2018-02-08T02:18:25.752Z,26.42
2018-02-08T02:19:25.730Z,26.39
2018-02-08T02:20:25.460Z,26.35
2018-02-08T02:21:25.439Z,26.44
2018-02-08T02:22:25.672Z,26.36
2018-02-08T02:23:25.651Z,26.39
2018-02-08T02:24:25.632Z,26.42
2018-02-08T02:25:25.614Z,26.39
2018-02-08T02:26:25.597Z,26.4
2018-02-08T02:27:25.576Z,26.42
2018-02-08T02:28:25.559Z,26.37
2018-02-08T02:29:25.537Z,26.39
2018-02-08T02:30:25.021Z,26.32
2018-02-08T02:31:25.503Z,26.39
2018-02-08T02:32:25.482Z,26.35
2018-02-08T02:33:25.467Z,26.4
2018-02-08T02:34:25.443Z,26.37
2018-02-08T02:35:25.422Z,26.32
2018-02-08T02:36:25.403Z,26.39
2018-02-08T02:37:25.394Z,26.37
2018-02-08T02:38:25.370Z,26.44
2018-02-08T02:39:25.349Z,26.42
2018-02-08T02:40:25.390Z,26.37
2018-02-08T02:41:25.308Z,26.35
2018-02-08T02:42:25.048Z,26.44
2018-02-08T02:43:25.276Z,26.36
2018-02-08T02:44:25.001Z,26.36
2018-02-08T02:45:25.242Z,26.4
2018-02-08T02:46:25.223Z,26.4
2018-02-08T02:47:25.203Z,26.44
2018-02-08T02:48:25.177Z,26.37
2018-02-08T02:49:25.158Z,26.39
2018-02-08T02:50:25.164Z,26.42
2018-02-08T02:51:25.170Z,26.36
2018-02-08T02:52:25.100Z,26.32
2018-02-08T02:53:24.829Z,26.39
2018-02-08T02:54:25.065Z,26.42
2018-02-08T02:55:25.042Z,26.42
2018-02-08T02:56:25.031Z,26.4
2018-02-08T02:57:25.016Z,26.46
2018-02-08T02:58:24.984Z,26.35
2018-02-08T02:59:24.716Z,26.35
2018-02-08T03:00:24.945Z,26.35
2018-02-08T03:01:24.996Z,26.36
2018-02-08T03:02:24.657Z,26.37
2018-02-08T03:03:24.891Z,26.4
2018-02-08T03:04:24.618Z,26.4
2018-02-08T03:05:24.849Z,26.42
2018-02-08T03:06:24.830Z,26.37
2018-02-08T03:07:24.809Z,26.39
2018-02-08T03:08:24.791Z,26.36
2018-02-08T03:09:24.772Z,26.39
2018-02-08T03:10:24.753Z,26.42
2018-02-08T03:11:24.733Z,26.37
2018-02-08T03:12:24.720Z,26.4
2018-02-08T03:13:24.695Z,26.39
2018-02-08T03:14:24.677Z,26.43
2018-02-08T03:15:24.408Z,26.37
2018-02-08T03:16:24.388Z,26.44
2018-02-08T03:17:24.369Z,26.44
2018-02-08T03:18:24.598Z,26.44
2018-02-08T03:19:24.330Z,26.4
2018-02-08T03:20:24.566Z,26.39
2018-02-08T03:21:24.546Z,26.4
2018-02-08T03:22:24.525Z,26.37
2018-02-08T03:23:24.258Z,26.37
2018-02-08T03:24:24.489Z,26.37
2018-02-08T03:25:24.472Z,26.37
2018-02-08T03:26:24.198Z,26.31
2018-02-08T03:27:24.177Z,26.4
2018-02-08T03:28:24.408Z,26.37
2018-02-08T03:29:24.392Z,26.4
2018-02-08T03:30:24.375Z,26.39
2018-02-08T03:31:24.355Z,26.35
2018-02-08T03:32:24.332Z,26.37
2018-02-08T03:33:24.312Z,26.4
2018-02-08T03:34:24.294Z,26.35
2018-02-08T03:35:24.024Z,26.37
2018-02-08T03:36:24.258Z,26.32
2018-02-08T03:37:24.235Z,26.39
2018-02-08T03:38:23.966Z,26.29
2018-02-08T03:39:24.198Z,26.44
2018-02-08T03:40:23.929Z,26.31
2018-02-08T03:41:24.160Z,26.35
2018-02-08T03:42:23.891Z,26.39
2018-02-08T03:43:24.121Z,26.36
2018-02-08T03:44:24.102Z,26.36
2018-02-08T03:45:24.082Z,26.35
2018-02-08T03:46:23.813Z,26.29
2018-02-08T03:47:24.043Z,26.36
2018-02-08T03:48:24.026Z,26.32
2018-02-08T03:49:24.005Z,26.27
2018-02-08T03:50:23.989Z,26.32
2018-02-08T03:51:23.717Z,26.36
2018-02-08T03:52:23.697Z,26.39
2018-02-08T03:53:23.696Z,26.32
2018-02-08T03:54:23.660Z,26.32
2018-02-08T03:55:23.639Z,26.36
2018-02-08T03:56:23.872Z,26.29
2018-02-08T03:57:23.851Z,26.36
2018-02-08T03:58:23.832Z,26.37
2018-02-08T03:59:23.812Z,26.27
2018-02-08T04:00:23.798Z,26.24
2018-02-08T04:01:23.775Z,26.31
2018-02-08T04:02:23.756Z,26.31
2018-02-08T04:03:23.486Z,26.35
2018-02-08T04:04:23.715Z,26.28
2018-02-08T04:05:23.703Z,26.29
2018-02-08T04:06:23.428Z,26.31
2018-02-08T04:07:23.658Z,26.28
2018-02-08T04:08:23.644Z,26.29
2018-02-08T04:09:23.621Z,26.31
2018-02-08T04:10:23.605Z,26.31
2018-02-08T04:11:23.582Z,26.31
2018-02-08T04:12:23.564Z,26.35
2018-02-08T04:13:23.543Z,26.27
2018-02-08T04:14:23.526Z,26.35
2018-02-08T04:15:23.259Z,26.32
2018-02-08T04:16:22.986Z,26.32
2018-02-08T04:17:23.220Z,26.32
2018-02-08T04:18:23.450Z,26.28
2018-02-08T04:19:23.429Z,26.35
2018-02-08T04:20:23.411Z,26.36
2018-02-08T04:21:23.218Z,26.29
2018-02-08T04:22:23.373Z,26.36
2018-02-08T04:23:23.355Z,26.32
2018-02-08T04:24:23.334Z,26.31
2018-02-08T04:25:23.319Z,26.31
2018-02-08T04:26:23.299Z,26.29
2018-02-08T04:27:23.026Z,26.27
2018-02-08T04:28:23.006Z,26.35
2018-02-08T04:29:22.993Z,26.24
2018-02-08T04:30:23.220Z,26.29
2018-02-08T04:31:23.202Z,26.27
2018-02-08T04:32:23.182Z,26.32
2018-02-08T04:33:22.911Z,26.31
2018-02-08T04:34:22.893Z,26.32
2018-02-08T04:35:23.125Z,26.29
2018-02-08T04:36:22.854Z,26.32
2018-02-08T04:37:23.090Z,26.37
2018-02-08T04:38:22.814Z,26.36
2018-02-08T04:39:22.796Z,26.35
2018-02-08T04:40:23.028Z,26.36
2018-02-08T04:41:23.010Z,26.37
2018-02-08T04:42:22.993Z,26.31
2018-02-08T04:43:22.969Z,26.36
2018-02-08T04:44:22.699Z,26.29
2018-02-08T04:45:22.930Z,26.36
2018-02-08T04:46:22.913Z,26.35
2018-02-08T04:47:22.891Z,26.36
2018-02-08T04:48:22.876Z,26.27
2018-02-08T04:49:22.854Z,26.32
2018-02-08T04:50:22.834Z,26.31
2018-02-08T04:51:22.815Z,26.32
2018-02-08T04:52:22.798Z,26.28
2018-02-08T04:53:22.774Z,26.35
2018-02-08T04:54:22.763Z,26.36
2018-02-08T04:55:22.740Z,26.29
2018-02-08T04:56:22.720Z,26.36
2018-02-08T04:57:22.449Z,26.35
2018-02-08T04:58:22.681Z,26.35
2018-02-08T04:59:22.662Z,26.39
2018-02-08T05:00:22.651Z,26.37
2018-02-08T05:01:22.625Z,26.31
2018-02-08T05:02:22.603Z,26.4
2018-02-08T05:03:22.595Z,26.29
2018-02-08T05:04:22.570Z,26.36
2018-02-08T05:05:22.549Z,26.28
2018-02-08T05:06:22.553Z,26.39
2018-02-08T05:07:22.507Z,26.32
2018-02-08T05:08:22.491Z,26.36
2018-02-08T05:09:22.469Z,26.37
2018-02-08T05:10:22.450Z,26.36
2018-02-08T05:11:22.432Z,26.44
2018-02-08T05:12:22.415Z,26.36
2018-02-08T05:13:22.412Z,26.35
2018-02-08T05:14:22.374Z,26.37
2018-02-08T05:15:22.363Z,26.37
2018-02-08T05:16:22.334Z,26.39
2018-02-08T05:17:22.317Z,26.4
2018-02-08T05:18:22.304Z,26.32
2018-02-08T05:19:22.286Z,26.47
2018-02-08T05:20:21.757Z,26.36
2018-02-08T05:21:21.988Z,26.37
2018-02-08T05:22:22.220Z,26.37
2018-02-08T05:23:22.200Z,26.31
2018-02-08T05:24:22.184Z,26.32
2018-02-08T05:25:22.163Z,26.37
2018-02-08T05:26:22.190Z,26.29
2018-02-08T05:27:22.125Z,26.39
2018-02-08T05:28:22.104Z,26.36
2018-02-08T05:29:22.085Z,26.32
2018-02-08T05:30:22.069Z,26.46
2018-02-08T05:31:22.046Z,26.4
2018-02-08T05:32:21.777Z,26.37
2018-02-08T05:33:22.008Z,26.37
2018-02-08T05:34:21.988Z,26.37
2018-02-08T05:35:21.969Z,26.37
2018-02-08T05:36:21.949Z,26.32
2018-02-08T05:37:21.680Z,26.36
2018-02-08T05:38:21.912Z,26.31
2018-02-08T05:39:21.894Z,26.35
2018-02-08T05:40:21.624Z,26.37
2018-02-08T05:41:21.854Z,26.35
2018-02-08T05:42:21.838Z,26.31
2018-02-08T05:43:21.816Z,26.42
2018-02-08T05:44:21.801Z,26.36
2018-02-08T05:45:21.529Z,26.35
2018-02-08T05:46:21.760Z,26.37
2018-02-08T05:47:21.747Z,26.31
2018-02-08T05:48:21.720Z,26.36
2018-02-08T05:49:21.455Z,26.35
2018-02-08T05:50:21.698Z,26.39
2018-02-08T05:51:21.196Z,26.42
2018-02-08T05:52:21.679Z,26.42
2018-02-08T05:53:21.624Z,26.42
2018-02-08T05:54:21.607Z,26.37
2018-02-08T05:55:21.586Z,26.4
2018-02-08T05:56:21.567Z,26.39
2018-02-08T05:57:21.304Z,26.37
2018-02-08T05:58:21.281Z,26.37
2018-02-08T05:59:21.259Z,26.42
2018-02-08T06:00:21.302Z,26.4
2018-02-08T06:01:21.478Z,26.37
2018-02-08T06:02:21.451Z,26.35
2018-02-08T06:03:21.434Z,26.42
2018-02-08T06:04:21.164Z,26.35
2018-02-08T06:05:21.395Z,26.39
2018-02-08T06:06:21.374Z,26.42
2018-02-08T06:07:21.376Z,26.35
2018-02-08T06:08:21.369Z,26.31
2018-02-08T06:09:21.318Z,26.35
2018-02-08T06:10:21.307Z,26.32
2018-02-08T06:11:21.283Z,26.36
2018-02-08T06:12:21.320Z,26.4
2018-02-08T06:13:20.993Z,26.37
2018-02-08T06:14:21.227Z,26.36
2018-02-08T06:15:21.205Z,26.37
2018-02-08T06:16:20.942Z,26.35
2018-02-08T06:17:21.170Z,26.36
2018-02-08T06:18:21.148Z,26.42
2018-02-08T06:19:20.885Z,26.29
2018-02-08T06:20:20.872Z,26.4
2018-02-08T06:21:21.106Z,26.42
2018-02-08T06:22:21.069Z,26.37
2018-02-08T06:23:21.051Z,26.35
2018-02-08T06:24:21.052Z,26.39
2018-02-08T06:25:21.135Z,26.37
2018-02-08T06:26:21.439Z,26.39
2018-02-08T06:27:21.304Z,26.35
2018-02-08T06:28:20.702Z,26.39
2018-02-08T06:29:20.933Z,26.32
2018-02-08T06:30:20.930Z,26.37
2018-02-08T06:31:20.896Z,26.39
2018-02-08T06:32:20.874Z,26.39
2018-02-08T06:33:20.849Z,26.35
2018-02-08T06:34:20.838Z,26.36
2018-02-08T06:35:20.573Z,26.31
2018-02-08T06:36:20.799Z,26.47
2018-02-08T06:37:20.535Z,26.4
2018-02-08T06:38:20.515Z,26.58
2018-02-08T06:39:20.747Z,26.5
2018-02-08T06:40:20.727Z,26.52
2018-02-08T06:41:20.457Z,26.58
2018-02-08T06:42:20.684Z,26.5
2018-02-08T06:43:20.663Z,26.58
2018-02-08T06:44:20.681Z,26.54
2018-02-08T06:45:20.376Z,26.43
2018-02-08T06:46:20.607Z,26.54
2018-02-08T06:47:20.597Z,26.49
2018-02-08T06:48:20.664Z,26.47
2018-02-08T06:49:20.300Z,26.62
2018-02-08T06:50:20.827Z,26.59
2018-02-08T06:51:20.285Z,26.54
2018-02-08T06:52:20.981Z,26.61
2018-02-08T06:53:20.477Z,26.68
2018-02-08T06:54:19.954Z,26.68
2018-02-08T06:55:20.437Z,26.62
2018-02-08T06:56:19.917Z,26.62
2018-02-08T06:57:20.446Z,26.65
2018-02-08T06:58:20.402Z,26.67
2018-02-08T06:59:20.107Z,26.72
2018-02-08T07:00:20.441Z,26.72
2018-02-08T07:01:20.321Z,26.64
2018-02-08T07:02:20.302Z,26.61
2018-02-08T07:03:20.297Z,26.67
2018-02-08T07:04:20.978Z,26.73
2018-02-08T07:05:20.243Z,26.65
2018-02-08T07:06:20.228Z,26.65
2018-02-08T07:07:20.215Z,26.73
2018-02-08T07:08:20.192Z,26.76
2018-02-08T07:09:20.166Z,26.74
2018-02-08T07:10:20.149Z,26.74
2018-02-08T07:11:20.132Z,26.76
2018-02-08T07:12:20.111Z,26.67
2018-02-08T07:13:20.105Z,26.74
2018-02-08T07:14:20.071Z,26.74
2018-02-08T07:15:19.552Z,26.79
2018-02-08T07:16:20.036Z,26.76
2018-02-08T07:17:19.530Z,26.76
2018-02-08T07:18:19.745Z,26.79
2018-02-08T07:19:19.979Z,26.77
2018-02-08T07:20:19.973Z,26.8
2018-02-08T07:21:19.949Z,26.84
2018-02-08T07:22:19.669Z,26.79
2018-02-08T07:23:19.650Z,26.81
2018-02-08T07:24:19.893Z,26.79
2018-02-08T07:25:19.863Z,26.77
2018-02-08T07:26:20.789Z,26.81
2018-02-08T07:27:19.837Z,26.79
2018-02-08T07:28:19.807Z,26.81
2018-02-08T07:29:19.790Z,26.84
2018-02-08T07:30:19.805Z,26.86
2018-02-08T07:31:19.539Z,26.76
2018-02-08T07:32:19.487Z,26.83
2018-02-08T07:33:19.737Z,26.84
2018-02-08T07:34:19.446Z,26.83
2018-02-08T07:35:19.681Z,26.83
2018-02-08T07:36:19.653Z,26.91
2018-02-08T07:37:19.633Z,26.84
2018-02-08T07:38:19.363Z,26.84
2018-02-08T07:39:19.436Z,26.86
2018-02-08T07:40:19.615Z,26.83
2018-02-08T07:41:19.569Z,26.83
2018-02-08T07:42:19.539Z,26.89
2018-02-08T07:43:19.279Z,26.86
2018-02-08T07:44:19.530Z,26.83
2018-02-08T07:45:19.230Z,26.84
2018-02-08T07:46:19.466Z,26.86
2018-02-08T07:47:19.216Z,26.87
2018-02-08T07:48:19.423Z,26.81
2018-02-08T07:49:19.154Z,26.84
2018-02-08T07:50:19.389Z,26.84
2018-02-08T07:51:19.135Z,26.81
2018-02-08T07:52:19.385Z,26.87
2018-02-08T07:53:19.387Z,26.89
2018-02-08T07:54:19.059Z,26.96
2018-02-08T07:55:19.292Z,26.87
2018-02-08T07:56:19.915Z,26.91
2018-02-08T07:57:19.329Z,26.92
2018-02-08T07:58:18.984Z,26.86
2018-02-08T07:59:18.993Z,26.95
2018-02-08T08:00:19.222Z,26.94
2018-02-08T08:01:19.179Z,26.87
2018-02-08T08:02:19.160Z,26.92
2018-02-08T08:03:19.140Z,26.96
2018-02-08T08:04:18.868Z,26.92
2018-02-08T08:05:19.109Z,26.91
2018-02-08T08:06:19.082Z,26.86
2018-02-08T08:07:18.815Z,26.91
2018-02-08T08:08:19.048Z,26.89
2018-02-08T08:09:18.777Z,26.95
2018-02-08T08:10:19.015Z,26.94
2018-02-08T08:11:18.986Z,26.86
2018-02-08T08:12:18.968Z,26.92
2018-02-08T08:13:18.951Z,26.87
2018-02-08T08:14:18.930Z,26.96
2018-02-08T08:15:18.913Z,26.92
2018-02-08T08:16:18.644Z,26.99
2018-02-08T08:17:18.930Z,26.95
2018-02-08T08:18:18.882Z,26.96
2018-02-08T08:19:19.092Z,27.01
2018-02-08T08:20:22.108Z,26.99
2018-02-08T08:21:18.919Z,27.01
2018-02-08T08:22:19.312Z,27.01
2018-02-08T08:23:18.827Z,27.01
2018-02-08T08:24:19.056Z,26.92
2018-02-08T08:25:18.847Z,26.96
2018-02-08T08:26:19.455Z,27.04
2018-02-08T08:27:21.616Z,26.95
2018-02-08T08:28:18.979Z,26.96
2018-02-08T08:29:18.735Z,26.99
2018-02-08T08:30:18.895Z,26.99
2018-02-08T08:31:18.368Z,26.95
2018-02-08T08:32:18.340Z,27.01
2018-02-08T08:33:18.659Z,27.01
2018-02-08T08:34:18.300Z,26.95
2018-02-08T08:35:18.281Z,27.01
2018-02-08T08:36:18.262Z,26.95
2018-02-08T08:37:18.798Z,27.04
2018-02-08T08:38:18.524Z,26.99
2018-02-08T08:39:18.507Z,26.96
2018-02-08T08:40:18.493Z,26.99
2018-02-08T08:41:18.169Z,27.04
2018-02-08T08:42:18.418Z,27.01
2018-02-08T08:43:18.396Z,26.96
2018-02-08T08:44:18.374Z,26.99
2018-02-08T08:45:18.341Z,26.94
2018-02-08T08:46:18.336Z,26.98
2018-02-08T08:47:18.311Z,26.99
2018-02-08T08:48:18.314Z,26.92
2018-02-08T08:49:18.568Z,27.01
2018-02-08T08:50:18.080Z,26.94
2018-02-08T08:51:18.523Z,26.95
2018-02-08T08:52:18.262Z,26.96
2018-02-08T08:53:18.195Z,27.01
2018-02-08T08:54:17.926Z,26.95
2018-02-08T08:55:18.195Z,27.05
2018-02-08T08:56:18.732Z,26.95
2018-02-08T08:57:18.547Z,26.99
2018-02-08T08:58:18.129Z,27.01
2018-02-08T08:59:18.305Z,27.01
2018-02-08T09:00:18.218Z,27.09
2018-02-08T09:01:18.354Z,27.01
2018-02-08T09:02:18.066Z,27.02
2018-02-08T09:03:17.771Z,27.04
2018-02-08T09:04:18.032Z,27.05
2018-02-08T09:05:17.463Z,26.98
2018-02-08T09:06:18.208Z,26.96
2018-02-08T09:07:17.924Z,27.01
2018-02-08T09:08:17.994Z,27.02
2018-02-08T09:09:17.927Z,27.02
2018-02-08T09:10:17.922Z,26.96
2018-02-08T09:11:17.940Z,26.96
2018-02-08T09:12:18.166Z,26.95
2018-02-08T09:13:17.687Z,26.96
2018-02-08T09:14:17.820Z,26.96
2018-02-08T09:15:17.823Z,26.92
2018-02-08T09:16:17.504Z,27.02
2018-02-08T09:17:17.489Z,26.95
2018-02-08T09:18:18.989Z,26.99
2018-02-08T09:19:18.278Z,27.02
2018-02-08T09:20:17.538Z,26.99
2018-02-08T09:21:18.419Z,27.02
2018-02-08T09:22:18.138Z,26.99
2018-02-08T09:23:17.661Z,27.05
2018-02-08T09:24:17.656Z,27.06
2018-02-08T09:25:17.338Z,27.02
2018-02-08T09:26:17.565Z,26.98
2018-02-08T09:27:17.555Z,26.99
2018-02-08T09:28:17.569Z,26.98
2018-02-08T09:29:17.532Z,26.96
2018-02-08T09:30:17.509Z,26.96
2018-02-08T09:31:17.522Z,27.02
2018-02-08T09:32:17.204Z,27.01
2018-02-08T09:33:17.186Z,26.98
2018-02-08T09:34:17.421Z,26.96
2018-02-08T09:35:17.415Z,27.01
2018-02-08T09:36:17.145Z,26.91
2018-02-08T09:37:17.107Z,26.99
2018-02-08T09:38:17.440Z,27.02
2018-02-08T09:39:17.333Z,26.96
2018-02-08T09:40:16.805Z,26.96
2018-02-08T09:41:17.596Z,27.01
2018-02-08T09:42:17.264Z,26.98
2018-02-08T09:43:17.045Z,27.01
2018-02-08T09:44:17.229Z,26.96
2018-02-08T09:45:17.266Z,26.99
2018-02-08T09:46:17.189Z,26.92
2018-02-08T09:47:17.381Z,27.04
2018-02-08T09:48:17.167Z,26.96
2018-02-08T09:49:17.128Z,26.99
2018-02-08T09:50:17.111Z,27.06
2018-02-08T09:51:16.851Z,26.98
2018-02-08T09:52:17.081Z,27.02
2018-02-08T09:53:17.070Z,27.01
2018-02-08T09:54:17.075Z,27.02
2018-02-08T09:55:17.549Z,27.09
2018-02-08T09:56:17.530Z,27.09
2018-02-08T09:57:16.786Z,27.02
2018-02-08T09:58:17.055Z,27.09
2018-02-08T09:59:17.767Z,27.06
2018-02-08T10:00:17.319Z,27.1
2018-02-08T10:01:17.179Z,27.02
2018-02-08T10:02:16.654Z,27.11
2018-02-08T10:03:16.932Z,27.13
2018-02-08T10:04:17.174Z,27.06
2018-02-08T10:05:16.872Z,27.13
2018-02-08T10:06:16.918Z,27.13
2018-02-08T17:20:31.925Z,26.2
2018-02-08T17:21:31.705Z,26.24
2018-02-08T17:22:32.096Z,26.24
2018-02-08T17:23:32.065Z,26.18
2018-02-08T17:24:31.832Z,26.22
2018-02-08T17:25:31.559Z,26.31
2018-02-08T17:26:31.531Z,26.37
2018-02-08T17:27:31.607Z,26.54
2018-02-08T17:28:31.785Z,26.54
2018-02-08T17:29:31.477Z,26.69
2018-02-08T17:30:31.453Z,26.86
2018-02-08T17:31:31.423Z,26.91
2018-02-08T17:32:32.015Z,27.05
2018-02-08T17:33:31.652Z,27.14
2018-02-08T17:34:31.632Z,27.28
2018-02-08T17:35:31.377Z,27.35
2018-02-08T17:36:31.314Z,27.51
2018-02-08T17:37:31.640Z,27.5
2018-02-08T17:38:31.559Z,27.69
2018-02-08T17:39:31.524Z,27.71
2018-02-08T17:40:31.532Z,27.73
2018-02-08T17:41:31.477Z,27.86
2018-02-08T17:42:31.232Z,27.89
2018-02-08T17:43:31.469Z,27.92
2018-02-08T17:44:31.635Z,28.06
2018-02-08T17:45:30.907Z,28.1
2018-02-08T17:46:31.144Z,28.17
2018-02-08T17:47:31.332Z,28.14
2018-02-08T17:48:31.369Z,28.23
2018-02-08T17:49:31.323Z,28.25
2018-02-08T17:50:31.349Z,28.33
2018-02-08T17:51:31.315Z,28.46
2018-02-08T17:52:31.081Z,28.43
2018-02-08T17:53:31.464Z,28.38
2018-02-08T17:54:31.086Z,28.46
2018-02-08T17:55:31.318Z,28.54
2018-02-08T17:56:31.323Z,28.54
2018-02-08T17:57:31.741Z,28.5
2018-02-08T17:58:31.301Z,28.59
2018-02-08T17:59:31.012Z,28.62
2018-02-08T18:00:31.230Z,28.65
2018-02-08T18:01:30.614Z,28.62
2018-02-08T18:02:30.980Z,28.7
2018-02-08T18:03:31.850Z,28.68
2018-02-08T18:04:31.519Z,28.66
2018-02-08T18:05:31.581Z,28.77
2018-02-08T18:06:30.798Z,28.73
2018-02-08T18:07:31.351Z,28.68
2018-02-08T18:08:31.639Z,28.82
2018-02-08T18:09:30.768Z,28.75
2018-02-08T18:10:30.833Z,28.81
2018-02-08T18:11:30.922Z,28.81
2018-02-08T18:12:30.754Z,28.85
2018-02-08T18:13:32.149Z,28.78
2018-02-08T18:14:31.018Z,28.9
2018-02-08T18:15:31.194Z,28.91
2018-02-08T18:16:30.969Z,28.9
2018-02-08T18:17:30.656Z,28.85
2018-02-08T18:18:30.661Z,28.88
2018-02-08T18:19:30.623Z,28.96
2018-02-08T18:20:31.086Z,28.9
2018-02-08T18:21:30.545Z,28.9
2018-02-08T18:22:30.528Z,28.96
2018-02-08T18:23:31.034Z,29
2018-02-08T18:24:30.777Z,28.93
2018-02-08T18:25:30.487Z,29
2018-02-08T18:26:30.758Z,28.91
2018-02-08T18:27:30.742Z,28.95
2018-02-08T18:28:30.933Z,28.93
2018-02-08T18:29:30.690Z,29.04
2018-02-08T18:30:30.677Z,29.07
2018-02-08T18:31:30.687Z,29
2018-02-08T18:32:30.647Z,29.06
2018-02-08T18:33:30.365Z,29.06
2018-02-08T18:34:30.364Z,29.04
2018-02-08T18:35:30.310Z,29.01
2018-02-08T18:36:30.817Z,29.07
2018-02-08T18:37:30.847Z,29.04
2018-02-08T18:38:30.011Z,29.08
2018-02-08T18:39:30.772Z,29.04
2018-02-08T18:40:30.571Z,28.96
2018-02-08T18:41:30.223Z,29.04
2018-02-08T18:42:30.177Z,29.06
2018-02-08T18:43:30.462Z,29.06
2018-02-08T18:44:30.415Z,28.97
2018-02-08T18:45:30.187Z,29.06
2018-02-08T18:46:29.852Z,29
2018-02-08T18:47:30.350Z,29.07
2018-02-08T18:48:30.083Z,29.01
2018-02-08T18:49:30.063Z,29.06
2018-02-08T18:50:30.303Z,29.01
2018-02-08T18:51:30.022Z,29.01
2018-02-08T18:52:30.267Z,29.04
2018-02-08T18:53:29.786Z,29.04
2018-02-08T18:54:30.242Z,29.07
2018-02-08T18:55:30.235Z,29.07
2018-02-08T18:56:30.211Z,29.03
2018-02-08T18:57:29.917Z,29.07
2018-02-08T18:58:30.168Z,29.08
2018-02-08T18:59:30.137Z,29.07
2018-02-08T19:00:30.113Z,29.1
2018-02-08T19:01:30.124Z,29.08
2018-02-08T19:02:29.847Z,29.11
2018-02-08T19:03:30.125Z,29.08
2018-02-08T19:04:29.801Z,29.2
2018-02-08T19:05:30.045Z,29.16
2018-02-08T19:06:30.016Z,29.19
2018-02-08T19:07:29.998Z,29.1
2018-02-08T19:08:29.480Z,29.08
2018-02-08T19:09:29.965Z,29.16
2018-02-08T19:10:29.721Z,29.15
2018-02-08T19:11:29.705Z,29.11
2018-02-08T19:12:29.926Z,29.15
2018-02-08T19:13:29.915Z,29.08
2018-02-08T19:14:29.893Z,29.16
2018-02-08T19:15:29.626Z,29.18
2018-02-08T19:16:29.864Z,29.15
2018-02-08T19:17:29.841Z,29.13
2018-02-08T19:18:29.573Z,29.2
2018-02-08T19:19:29.798Z,29.16
2018-02-08T19:20:29.541Z,29.19
2018-02-08T19:21:29.782Z,29.16
2018-02-08T19:22:29.494Z,29.18
2018-02-08T19:23:29.489Z,29.16
2018-02-08T19:24:29.479Z,29.13
2018-02-08T19:25:29.705Z,29.16
2018-02-08T19:26:29.697Z,29.15
2018-02-08T19:27:29.673Z,29.22
2018-02-08T19:28:29.405Z,29.22
2018-02-08T19:29:29.140Z,29.18
2018-02-08T19:30:29.381Z,29.18
2018-02-08T19:31:29.602Z,29.16
2018-02-08T19:32:29.627Z,29.15
2018-02-08T19:33:29.327Z,29.19
2018-02-08T19:34:29.308Z,29.23
2018-02-08T19:35:29.553Z,29.22
2018-02-08T19:36:29.303Z,29.13
2018-02-08T19:37:29.527Z,29.15
2018-02-08T19:38:29.473Z,29.16
2018-02-08T19:39:29.228Z,29.16
2018-02-08T19:40:29.454Z,29.15
2018-02-08T19:41:29.183Z,29.16
2018-02-08T19:42:29.440Z,29.19
2018-02-08T19:43:29.397Z,29.26
2018-02-08T19:44:29.120Z,29.1
2018-02-08T19:45:28.854Z,29.19
2018-02-08T19:46:29.344Z,29.18
2018-02-08T19:47:29.347Z,29.25
2018-02-08T19:48:29.067Z,29.22
2018-02-08T19:49:29.310Z,29.16
2018-02-08T19:50:29.289Z,29.22
2018-02-08T19:51:29.026Z,29.25
2018-02-08T19:52:29.258Z,29.19
2018-02-08T19:53:28.987Z,29.18
2018-02-08T19:54:29.022Z,29.28
2018-02-08T19:55:28.946Z,29.22
2018-02-08T19:56:28.918Z,29.28
2018-02-08T19:57:29.166Z,29.19
2018-02-08T19:58:29.148Z,29.23
2018-02-08T19:59:28.936Z,29.15
2018-02-08T20:00:28.859Z,29.2
2018-02-08T20:01:29.109Z,29.18
2018-02-08T20:02:28.826Z,29.25
2018-02-08T20:03:29.069Z,29.18
2018-02-08T20:04:28.860Z,29.19
2018-02-08T20:05:29.029Z,29.2
2018-02-08T20:06:29.012Z,29.2
2018-02-08T20:07:29.001Z,29.2